Evendale, Pennsylvania
Current Conditions -  °F | °C
As of 6:53 AM on Thursday 27 Nov 2014 (Local Time) from KSEG Reporting Station
Overcast Overcast  
Wind Chill: -1°   Ceiling: 4400
Heat Index: -1°   Visibility: 10mi
Dew Point: -2°   Wind: 0mph
Humidity: 92%   Direction: NA
Pressure: 30.01"   Gusts: NA
Location:  40.6987°N, 77.1242°W
Report Text: KSEG 271153Z AUTO 00000KT 10SM OVC044 M01/M02 A3001 RMK AO2 SLP168 60000 70064 T10061017 10006 21006 53003
Loading
Personal Weather Stations






























Interactive Weather Map New forecast layout! Learn more

10-Day Weather Forecast

Advertisements
Track Severe Weather on mobile